Time;durP1;ratioP1;P1;durP2;ratioP2;P2;SDS_P1;SDS_P2;PMS_P1;PMS_P2;Temp;Humidity;BMP_temperature;BMP_pressure;BME280_temperature;BME280_humidity;BME280_pressure;Samples;Min_cycle;Max_cycle;Signal;HPM_P1;HPM_P2
2022/08/22 00:00:52;;;;;;;2.45;1.30;;;21.70;75.40;;;;;;6097471;23;20017;-67
2022/08/22 00:03:22;;;;;;;4.75;1.92;;;21.70;75.80;;;;;;6072006;23;20422;-67
2022/08/22 00:06:05;;;;;;;3.30;1.48;;;21.70;76.10;;;;;;6097482;23;20481;-67
2022/08/22 00:09:01;;;;;;;4.63;1.45;;;21.70;76.40;;;;;;6097602;23;20010;-66
2022/08/22 00:11:48;;;;;;;7.85;1.60;;;21.70;77.10;;;;;;6096075;23;20107;-67
2022/08/22 00:14:17;;;;;;;7.15;1.48;;;21.70;77.60;;;;;;6097684;23;20008;-67
2022/08/22 00:16:48;;;;;;;7.97;2.08;;;21.70;78.40;;;;;;6097487;23;20014;-66
2022/08/22 00:19:56;;;;;;;4.38;1.55;;;21.70;78.60;;;;;;6097489;23;20405;-67
2022/08/22 00:22:43;;;;;;;4.20;1.60;;;21.60;78.70;;;;;;5957541;24;20424;-66
2022/08/22 00:25:09;;;;;;;14.63;1.50;;;21.60;78.50;;;;;;6090044;23;20452;-66
2022/08/22 00:27:55;;;;;;;9.05;1.83;;;21.60;78.50;;;;;;6071878;23;20002;-67
2022/08/22 00:30:22;;;;;;;4.63;1.55;;;21.60;78.30;;;;;;6097500;23;20061;-67
2022/08/22 00:33:01;;;;;;;6.72;1.70;;;21.60;78.40;;;;;;6097419;23;20029;-67
2022/08/22 00:35:40;;;;;;;3.53;1.83;;;21.60;78.60;;;;;;6097348;23;20002;-67
2022/08/22 00:38:17;;;;;;;5.05;1.75;;;21.50;78.70;;;;;;6097156;23;20014;-67
2022/08/22 00:40:44;;;;;;;4.60;1.80;;;21.50;78.90;;;;;;6097614;23;20017;-67
2022/08/22 00:43:12;;;;;;;4.65;1.83;;;21.50;79.00;;;;;;6097033;23;20030;-67
2022/08/22 00:45:53;;;;;;;2.22;1.70;;;21.50;79.00;;;;;;6097273;23;20006;-67
2022/08/22 00:48:56;;;;;;;6.95;1.92;;;21.50;79.10;;;;;;6097405;23;19998;-67
2022/08/22 00:51:55;;;;;;;5.25;1.77;;;21.40;79.10;;;;;;6097203;23;19998;-67
2022/08/22 00:54:53;;;;;;;6.63;1.70;;;21.40;78.90;;;;;;6097006;23;20007;-67
2022/08/22 00:57:45;;;;;;;3.70;1.60;;;21.40;78.60;;;;;;6096902;23;20496;-66
2022/08/22 01:00:21;;;;;;;4.70;1.67;;;21.40;78.30;;;;;;6049166;23;20022;-67
2022/08/22 01:03:06;;;;;;;3.40;1.60;;;21.30;77.90;;;;;;6093579;23;20017;-66
2022/08/22 01:05:34;;;;;;;7.18;1.60;;;21.30;78.10;;;;;;6095920;23;20003;-67
2022/08/22 01:08:33;;;;;;;3.10;1.80;;;21.30;77.90;;;;;;6096737;23;20010;-67
2022/08/22 01:11:36;;;;;;;4.15;1.42;;;21.30;77.60;;;;;;6096811;23;20006;-66
2022/08/22 01:14:13;;;;;;;4.45;1.40;;;21.20;77.70;;;;;;6096555;23;20010;-66
2022/08/22 01:16:53;;;;;;;4.90;1.70;;;21.30;77.90;;;;;;6096885;23;20010;-67
2022/08/22 01:19:37;;;;;;;5.18;1.50;;;21.20;77.50;;;;;;6097252;23;20010;-66
2022/08/22 01:22:05;;;;;;;6.25;1.63;;;21.20;77.50;;;;;;6097121;23;20365;-66
2022/08/22 01:25:23;;;;;;;6.30;1.50;;;21.10;78.00;;;;;;6097174;23;20017;-67
2022/08/22 01:28:16;;;;;;;6.88;1.58;;;21.10;78.30;;;;;;6032357;23;20010;-67
2022/08/22 01:31:06;;;;;;;4.82;1.90;;;21.10;78.80;;;;;;6096565;23;20069;-67
2022/08/22 01:33:55;;;;;;;2.50;1.55;;;21.10;78.80;;;;;;6097047;23;20003;-67
2022/08/22 01:36:45;;;;;;;3.90;1.52;;;21.10;79.20;;;;;;6096463;23;20081;-67
2022/08/22 01:39:31;;;;;;;4.22;1.80;;;21.00;79.30;;;;;;6096938;23;20002;-67
2022/08/22 01:42:39;;;;;;;7.07;1.70;;;21.00;79.40;;;;;;6095647;23;20090;-67
2022/08/22 01:45:44;;;;;;;3.03;1.45;;;21.00;79.50;;;;;;6096785;23;20014;-67
2022/08/22 01:48:42;;;;;;;1.63;1.48;;;21.00;79.00;;;;;;6076266;23;20093;-66
2022/08/22 01:51:21;;;;;;;3.40;1.40;;;20.90;78.30;;;;;;6096484;23;20469;-67
2022/08/22 01:53:51;;;;;;;3.83;1.50;;;20.90;78.00;;;;;;6097076;23;20010;-66
2022/08/22 01:56:20;;;;;;;2.38;1.50;;;20.90;77.60;;;;;;6096805;23;20006;-67
2022/08/22 01:59:09;;;;;;;6.75;1.70;;;20.90;77.10;;;;;;6096423;23;20025;-67
2022/08/22 02:01:57;;;;;;;9.65;1.80;;;20.90;76.80;;;;;;6097193;23;20010;-67
2022/08/22 02:04:47;;;;;;;3.92;1.50;;;20.90;76.60;;;;;;6096931;23;20029;-67
2022/08/22 02:07:31;;;;;;;3.22;1.90;;;20.80;76.20;;;;;;6096410;23;20010;-67
2022/08/22 02:10:16;;;;;;;3.17;1.60;;;20.90;75.70;;;;;;6096603;23;20422;-66
2022/08/22 02:13:01;;;;;;;6.40;1.83;;;20.90;74.80;;;;;;6096799;23;20006;-67
2022/08/22 02:15:46;;;;;;;11.68;2.67;;;20.90;74.30;;;;;;6096499;23;20014;-66
2022/08/22 02:18:21;;;;;;;2.58;1.40;;;20.90;74.10;;;;;;6096702;23;20007;-67
2022/08/22 02:20:47;;;;;;;5.28;1.58;;;20.90;73.80;;;;;;6096330;23;20013;-67
2022/08/22 02:23:50;;;;;;;4.85;1.55;;;20.90;73.70;;;;;;6097989;23;20002;-67
2022/08/22 02:26:39;;;;;;;2.13;1.27;;;20.80;73.30;;;;;;6098619;23;20370;-67
2022/08/22 02:29:30;;;;;;;5.57;1.70;;;20.80;73.50;;;;;;6098785;23;20325;-66
2022/08/22 02:32:24;;;;;;;4.90;1.55;;;20.80;73.40;;;;;;6098750;23;20002;-67
2022/08/22 02:35:05;;;;;;;4.90;1.60;;;20.80;73.30;;;;;;6084000;23;20472;-67
2022/08/22 02:37:48;;;;;;;6.55;1.35;;;20.80;73.30;;;;;;6098126;23;20015;-67
2022/08/22 02:40:39;;;;;;;3.47;1.58;;;20.80;73.20;;;;;;6098734;23;19998;-67
2022/08/22 02:43:11;;;;;;;3.45;1.23;;;20.80;73.20;;;;;;6098664;23;20421;-67
2022/08/22 02:45:41;;;;;;;;;;;20.80;73.40;;;;;;6099222;23;20045;-65
2022/08/22 02:48:40;;;;;;;2.70;1.40;;;20.80;73.10;;;;;;6098108;23;19902;-67
2022/08/22 02:51:24;;;;;;;5.72;1.48;;;20.80;73.60;;;;;;6097979;23;20098;-66
2022/08/22 02:54:20;;;;;;;3.10;1.60;;;20.70;73.80;;;;;;6098553;23;20010;-67
2022/08/22 02:57:00;;;;;;;3.10;1.40;;;20.70;73.70;;;;;;6098018;23;20456;-67
2022/08/22 02:59:25;;;;;;;2.67;1.50;;;20.70;73.70;;;;;;6098277;23;20019;-67
2022/08/22 03:01:53;;;;;;;4.05;1.65;;;20.60;73.80;;;;;;6098624;23;20010;-67
2022/08/22 03:04:31;;;;;;;3.13;1.33;;;20.70;74.10;;;;;;6098400;23;20002;-67
2022/08/22 03:07:02;;;;;;;2.92;1.40;;;20.70;73.90;;;;;;6097984;23;20010;-67
2022/08/22 03:09:49;;;;;;;7.83;2.00;;;20.70;74.40;;;;;;6098640;23;20325;-67
2022/08/22 03:12:27;;;;;;;3.85;1.75;;;20.60;75.10;;;;;;6097994;23;20010;-66
2022/08/22 03:15:21;;;;;;;5.68;1.90;;;20.60;76.10;;;;;;6098158;23;20018;-66
2022/08/22 03:18:13;;;;;;;3.58;1.50;;;20.50;76.70;;;;;;6048508;23;20050;-67
2022/08/22 03:20:51;;;;;;;6.03;1.77;;;20.50;77.20;;;;;;6098411;23;20037;-67
2022/08/22 03:23:27;;;;;;;5.38;2.00;;;20.50;77.70;;;;;;6098511;23;20234;-67
2022/08/22 03:26:05;;;;;;;9.48;1.83;;;20.40;78.00;;;;;;6098403;23;20003;-67
2022/08/22 03:28:44;;;;;;;3.75;1.52;;;20.40;78.30;;;;;;6098589;23;20018;-67
2022/08/22 03:31:19;;;;;;;6.82;1.73;;;20.30;78.50;;;;;;6098016;23;20058;-67
2022/08/22 03:34:15;;;;;;;3.60;1.70;;;20.30;78.60;;;;;;6097515;23;20002;-67
2022/08/22 03:36:56;;;;;;;5.90;1.90;;;20.40;78.60;;;;;;6098517;23;20026;-67
2022/08/22 03:39:55;;;;;;;3.13;1.80;;;20.30;78.40;;;;;;6098379;23;20436;-67
2022/08/22 03:42:43;;;;;;;4.15;1.95;;;20.30;78.10;;;;;;6097838;23;20003;-66
2022/08/22 03:45:47;;;;;;;2.65;1.70;;;20.30;78.10;;;;;;6097764;23;20003;-67
2022/08/22 03:48:41;;;;;;;1.95;1.50;;;20.30;77.90;;;;;;6098285;23;20069;-66
2022/08/22 03:51:22;;;;;;;4.90;1.80;;;20.30;77.70;;;;;;6097673;23;20006;-66
2022/08/22 03:53:59;;;;;;;7.10;2.03;;;20.20;77.80;;;;;;6098075;23;20422;-67
2022/08/22 03:56:30;;;;;;;5.25;1.65;;;20.20;78.40;;;;;;6097554;23;20318;-66
2022/08/22 03:59:30;;;;;;;2.28;1.70;;;20.20;78.60;;;;;;6097842;23;20023;-67
2022/08/22 04:02:02;;;;;;;4.22;1.67;;;20.20;78.40;;;;;;6097357;23;20072;-66
2022/08/22 04:04:46;;;;;;;6.50;1.67;;;20.20;78.90;;;;;;6097504;23;20011;-67
2022/08/22 04:07:42;;;;;;;2.38;1.55;;;20.20;78.10;;;;;;6097621;23;20061;-66
2022/08/22 04:10:31;;;;;;;6.00;1.55;;;20.20;78.10;;;;;;6098152;23;20010;-66
2022/08/22 04:13:26;;;;;;;4.15;1.95;;;20.20;77.80;;;;;;6097563;23;20333;-67
2022/08/22 04:16:29;;;;;;;3.33;1.67;;;20.20;77.50;;;;;;6097775;23;20337;-67
2022/08/22 04:19:32;;;;;;;3.80;1.75;;;20.20;77.10;;;;;;6097833;23;20069;-67
2022/08/22 04:22:01;;;;;;;4.82;1.40;;;20.20;76.60;;;;;;6097464;23;20004;-67
2022/08/22 04:24:36;;;;;;;5.25;1.65;;;20.10;76.10;;;;;;6097383;23;20062;-65
2022/08/22 04:27:09;;;;;;;1.65;1.23;;;20.10;75.60;;;;;;6097726;23;20003;-66
2022/08/22 04:29:52;;;;;;;4.75;1.67;;;20.10;75.90;;;;;;6097389;23;20006;-67
2022/08/22 04:33:08;;;;;;;3.15;1.33;;;20.10;76.10;;;;;;6097611;23;20033;-67
2022/08/22 04:35:52;;;;;;;3.55;1.63;;;20.10;76.10;;;;;;6033984;23;20085;-67
2022/08/22 04:38:37;;;;;;;5.30;1.50;;;20.10;76.30;;;;;;6097769;23;20065;-66
2022/08/22 04:41:23;;;;;;;6.15;1.60;;;20.10;76.50;;;;;;6097178;23;20006;-67
2022/08/22 04:43:52;;;;;;;7.15;1.70;;;20.00;76.50;;;;;;6097502;23;20373;-69
2022/08/22 04:46:21;;;;;;;6.43;1.70;;;20.00;76.60;;;;;;6097350;23;19999;-68
2022/08/22 04:48:56;;;;;;;6.75;1.75;;;19.90;76.70;;;;;;6097073;23;20041;-68
2022/08/22 04:51:30;;;;;;;4.30;1.40;;;19.90;76.90;;;;;;6096917;23;20002;-69
2022/08/22 04:54:05;;;;;;;2.50;1.52;;;19.90;77.10;;;;;;6097234;23;20448;-68
2022/08/22 04:56:58;;;;;;;2.78;1.52;;;19.90;77.10;;;;;;6097139;23;20010;-67
2022/08/22 04:59:25;;;;;;;4.72;1.88;;;19.90;77.00;;;;;;6096636;23;20342;-66
2022/08/22 05:01:56;;;;;;;2.83;1.48;;;19.90;77.10;;;;;;6096760;23;20430;-67
2022/08/22 05:04:30;;;;;;;4.38;1.67;;;19.90;77.10;;;;;;6097309;23;20045;-68
2022/08/22 05:07:04;;;;;;;3.20;1.85;;;19.90;77.60;;;;;;6097283;23;20437;-67
2022/08/22 05:09:34;;;;;;;5.22;1.90;;;19.90;77.60;;;;;;6097413;23;20007;-68
2022/08/22 05:12:07;;;;;;;7.10;2.65;;;19.90;77.60;;;;;;6096977;23;20037;-67
2022/08/22 05:14:39;;;;;;;5.15;1.92;;;19.90;77.60;;;;;;6096733;23;20007;-67
2022/08/22 05:17:09;;;;;;;3.43;1.90;;;19.90;77.80;;;;;;6096995;23;20015;-67
2022/08/22 05:19:39;;;;;;;3.45;1.70;;;19.90;78.00;;;;;;6097300;23;20561;-67
2022/08/22 05:22:11;;;;;;;4.68;2.08;;;19.90;78.10;;;;;;6097007;23;20026;-67
2022/08/22 05:24:41;;;;;;;6.88;3.13;;;19.90;78.50;;;;;;6097370;23;20017;-68
2022/08/22 05:27:25;;;;;;;5.88;1.80;;;19.90;78.70;;;;;;6097258;23;20010;-67
2022/08/22 05:29:57;;;;;;;11.45;2.28;;;19.90;78.70;;;;;;6097196;23;20002;-67
2022/08/22 05:32:28;;;;;;;3.65;2.08;;;19.90;78.80;;;;;;6097345;23;20374;-67
2022/08/22 05:34:58;;;;;;;4.83;1.97;;;19.90;78.70;;;;;;6096824;23;19999;-67
2022/08/22 05:37:41;;;;;;;8.35;1.77;;;19.90;78.50;;;;;;6096927;23;20022;-67
2022/08/22 05:40:11;;;;;;;3.28;1.70;;;19.90;78.30;;;;;;6096920;23;20010;-67
2022/08/22 05:42:37;;;;;;;10.10;2.78;;;19.90;78.30;;;;;;6096640;23;20014;-66
2022/08/22 05:45:06;;;;;;;4.05;1.80;;;19.90;78.20;;;;;;6096941;23;20010;-68
2022/08/22 05:47:35;;;;;;;3.38;1.95;;;19.90;77.80;;;;;;6096912;23;20007;-68
2022/08/22 05:50:06;;;;;;;8.05;2.10;;;19.90;77.90;;;;;;6096756;23;20378;-67
2022/08/22 05:52:32;;;;;;;12.65;2.22;;;20.00;78.10;;;;;;6096991;23;20090;-68
2022/08/22 05:55:13;;;;;;;4.90;1.70;;;20.00;78.10;;;;;;6096706;23;20030;-67
2022/08/22 05:57:41;;;;;;;4.20;1.83;;;20.00;78.30;;;;;;6096686;23;20409;-67
2022/08/22 06:00:31;;;;;;;7.53;1.80;;;20.10;78.50;;;;;;6095747;23;20018;-67
2022/08/22 06:03:19;;;;;;;7.00;1.80;;;20.10;78.80;;;;;;6095729;23;20303;-66
2022/08/22 06:05:50;;;;;;;3.92;1.83;;;20.10;78.80;;;;;;6095862;23;20007;-66
2022/08/22 06:08:25;;;;;;;6.03;1.80;;;20.10;78.50;;;;;;6096145;23;20003;-66
2022/08/22 06:10:55;;;;;;;3.83;1.73;;;20.20;77.80;;;;;;6096144;23;20322;-67
2022/08/22 06:13:36;;;;;;;5.55;1.60;;;20.20;77.50;;;;;;6096572;23;20006;-66
2022/08/22 06:16:19;;;;;;;73.63;4.60;;;20.20;77.30;;;;;;6095614;23;20066;-66
2022/08/22 06:18:47;;;;;;;6.25;1.92;;;20.30;76.90;;;;;;6088954;23;20054;-67
2022/08/22 06:21:36;;;;;;;5.38;1.83;;;20.30;76.60;;;;;;6096014;23;20006;-67
2022/08/22 06:24:08;;;;;;;25.33;2.65;;;20.30;76.30;;;;;;6096941;23;20463;-67
2022/08/22 06:26:46;;;;;;;3.63;1.80;;;20.30;77.40;;;;;;6096650;23;20402;-68
2022/08/22 06:29:26;;;;;;;3.67;1.77;;;20.40;76.60;;;;;;6096808;23;20017;-67
2022/08/22 06:31:52;;;;;;;4.97;2.00;;;20.40;76.30;;;;;;6096406;23;20448;-67
2022/08/22 06:34:33;;;;;;;9.45;2.65;;;20.50;76.00;;;;;;6096273;23;20417;-67
2022/08/22 06:37:04;;;;;;;8.52;1.92;;;20.50;75.70;;;;;;6096838;23;20018;-67
2022/08/22 06:39:37;;;;;;;5.70;1.73;;;20.50;75.60;;;;;;6096526;23;19998;-67
2022/08/22 06:42:09;;;;;;;4.65;1.58;;;20.60;75.40;;;;;;6096212;23;20017;-67
2022/08/22 06:44:42;;;;;;;5.63;1.35;;;20.60;75.20;;;;;;6096260;23;20006;-67
2022/08/22 06:47:24;;;;;;;7.70;1.70;;;20.60;74.20;;;;;;6093355;23;20081;-67
2022/08/22 06:49:57;;;;;;;4.40;1.95;;;20.80;77.80;;;;;;6096036;23;20002;-67
2022/08/22 06:52:24;;;;;;;;;;;20.70;74.50;;;;;;6096784;23;20082;-67
2022/08/22 06:54:59;;;;;;;7.40;1.98;;;20.70;74.80;;;;;;6096372;23;19902;-67
2022/08/22 06:57:31;;;;;;;4.00;1.63;;;20.80;74.40;;;;;;6096542;23;20014;-67
2022/08/22 06:59:58;;;;;;;2.63;1.73;;;20.80;73.70;;;;;;6096336;23;20018;-67
2022/08/22 07:02:36;;;;;;;4.07;1.70;;;20.80;73.10;;;;;;6096509;23;20077;-67
2022/08/22 07:05:02;;;;;;;2.15;1.73;;;20.80;73.00;;;;;;6096706;23;20081;-67
2022/08/22 07:07:28;;;;;;;2.95;1.70;;;20.80;72.80;;;;;;6096290;23;20469;-67
2022/08/22 07:09:56;;;;;;;2.88;1.55;;;20.80;72.90;;;;;;6097686;23;20014;-67
2022/08/22 07:12:30;;;;;;;8.80;2.15;;;20.80;72.90;;;;;;6097995;23;20029;-67
2022/08/22 07:15:27;;;;;;;6.35;1.60;;;20.90;73.00;;;;;;6098103;23;20003;-68
2022/08/22 07:17:58;;;;;;;3.38;2.10;;;20.80;73.30;;;;;;6091787;23;20101;-68
2022/08/22 07:20:28;;;;;;;4.00;1.60;;;20.90;72.00;;;;;;6098119;23;19998;-67
2022/08/22 07:23:02;;;;;;;6.03;1.48;;;20.90;71.70;;;;;;6098098;23;20007;-67
2022/08/22 07:25:30;;;;;;;4.38;1.77;;;20.90;71.90;;;;;;6097999;23;20413;-68
2022/08/22 07:28:14;;;;;;;2.17;1.45;;;21.00;71.60;;;;;;6097748;23;20150;-68
2022/08/22 07:30:43;;;;;;;1.73;1.35;;;21.00;71.40;;;;;;6097940;23;20002;-68
2022/08/22 07:33:24;;;;;;;4.85;1.73;;;21.00;71.30;;;;;;6098083;23;20334;-67
2022/08/22 07:36:00;;;;;;;6.85;1.48;;;21.10;70.70;;;;;;6098168;23;20002;-67
2022/08/22 07:38:35;;;;;;;3.53;1.50;;;21.10;70.80;;;;;;6098177;23;20414;-67
2022/08/22 07:41:12;;;;;;;4.00;1.90;;;21.10;70.70;;;;;;6098100;23;20302;-67
2022/08/22 07:43:42;;;;;;;2.80;1.40;;;21.10;70.80;;;;;;6097697;23;20006;-67
2022/08/22 07:46:26;;;;;;;3.00;1.70;;;21.10;70.80;;;;;;6097870;23;20455;-67
2022/08/22 07:49:15;;;;;;;5.72;1.52;;;21.20;70.50;;;;;;6097602;23;20010;-67
2022/08/22 07:51:48;;;;;;;7.75;1.50;;;21.20;70.40;;;;;;6097869;23;20391;-68
2022/08/22 07:54:21;;;;;;;8.25;1.73;;;21.30;70.00;;;;;;6097572;23;19999;-67
2022/08/22 07:57:08;;;;;;;4.95;1.70;;;21.30;69.60;;;;;;6097654;23;20061;-68
2022/08/22 07:59:36;;;;;;;2.55;1.38;;;21.40;69.60;;;;;;6097543;23;20331;-68
2022/08/22 08:02:09;;;;;;;3.85;1.48;;;21.40;69.70;;;;;;6097547;23;20014;-68
2022/08/22 08:04:35;;;;;;;3.30;1.52;;;21.50;70.00;;;;;;6097761;23;20383;-67
2022/08/22 08:07:04;;;;;;;4.85;1.45;;;21.60;70.00;;;;;;6097960;23;20010;-68
2022/08/22 08:09:35;;;;;;;4.53;1.73;;;21.70;69.70;;;;;;6096608;23;20003;-68
2022/08/22 08:12:04;;;;;;;4.65;1.50;;;21.80;69.20;;;;;;6094875;23;20334;-68
2022/08/22 08:14:32;;;;;;;5.18;1.45;;;21.80;69.20;;;;;;6097422;23;20015;-68
2022/08/22 08:17:10;;;;;;;3.28;1.65;;;22.00;69.10;;;;;;6096306;23;20037;-68
2022/08/22 08:19:40;;;;;;;7.95;1.48;;;22.00;68.40;;;;;;6097445;23;20066;-68
2022/08/22 08:22:06;;;;;;;2.47;1.60;;;22.10;67.80;;;;;;6097685;23;20018;-68
2022/08/22 08:24:38;;;;;;;6.95;1.52;;;22.20;67.30;;;;;;6097959;23;19999;-67
2022/08/22 08:29:58;;;;;;;3.78;1.70;;;22.40;64.80;;;;;;6097488;23;20097;-68
2022/08/22 08:32:29;;;;;;;3.95;1.90;;;22.50;65.20;;;;;;6097538;23;20006;-67
2022/08/22 08:34:55;;;;;;;7.40;1.58;;;22.60;65.80;;;;;;6097947;23;20010;-68
2022/08/22 08:37:33;;;;;;;5.55;1.35;;;22.60;65.80;;;;;;6097615;23;20067;-68
2022/08/22 08:40:02;;;;;;;2.08;1.50;;;22.80;65.30;;;;;;6097571;23;20029;-67
2022/08/22 08:46:24;;;;;;;5.18;1.50;;;22.90;63.80;;;;;;6097608;23;20017;-68
2022/08/22 08:48:50;;;;;;;;;;;23.00;64.30;;;;;;6097947;23;20421;-68
2022/08/22 08:51:23;;;;;;;4.13;1.35;;;23.10;63.40;;;;;;6097415;23;19985;-67
2022/08/22 08:54:03;;;;;;;5.85;1.50;;;23.30;62.80;;;;;;6097365;23;20003;-68
2022/08/22 08:56:46;;;;;;;1.88;1.27;;;23.30;62.20;;;;;;6097078;23;20022;-67
2022/08/22 08:59:20;;;;;;;4.07;1.23;;;23.40;62.10;;;;;;6097390;23;20019;-68
2022/08/22 09:02:04;;;;;;;6.38;1.50;;;23.40;61.90;;;;;;6097226;23;20492;-68
2022/08/22 09:05:07;;;;;;;2.42;1.55;;;23.50;61.90;;;;;;6097220;23;20014;-68
2022/08/22 09:07:51;;;;;;;2.50;1.35;;;23.60;60.90;;;;;;6097120;23;20422;-68
2022/08/22 09:10:26;;;;;;;3.65;1.20;;;23.80;59.50;;;;;;6097228;23;20010;-67
2022/08/22 09:13:18;;;;;;;2.55;1.40;;;23.90;58.20;;;;;;6097336;23;20078;-68
2022/08/22 09:15:53;;;;;;;;;;;23.90;57.40;;;;;;6097909;23;20010;-68
2022/08/22 09:19:02;;;;;;;1.98;1.25;;;24.00;56.90;;;;;;6097134;23;19909;-68
2022/08/22 09:21:43;;;;;;;1.70;1.10;;;24.10;54.90;;;;;;6078122;23;20014;-68
2022/08/22 09:24:11;;;;;;;1.10;1.00;;;24.20;54.90;;;;;;6097174;23;20435;-68
2022/08/22 09:26:52;;;;;;;1.35;1.20;;;24.30;54.40;;;;;;6096978;23;20006;-67
2022/08/22 09:29:45;;;;;;;4.97;1.50;;;24.40;54.70;;;;;;6097263;23;20003;-68
2022/08/22 09:32:44;;;;;;;1.27;1.15;;;24.50;54.60;;;;;;6096905;23;20086;-68
2022/08/22 09:35:16;;;;;;;10.02;1.50;;;24.60;52.60;;;;;;6097051;23;20081;-68
2022/08/22 09:38:22;;;;;;;2.00;1.10;;;24.70;52.70;;;;;;6097148;23;20018;-67
2022/08/22 09:41:03;;;;;;;2.40;1.15;;;24.80;52.60;;;;;;6094005;23;20330;-68
2022/08/22 09:43:58;;;;;;;2.78;1.00;;;24.80;52.90;;;;;;6097079;23;20425;-68
2022/08/22 09:46:54;;;;;;;1.65;1.10;;;25.00;52.60;;;;;;6096921;23;20062;-67
2022/08/22 09:49:31;;;;;;;1.92;1.00;;;25.00;51.20;;;;;;6055566;23;20010;-67
2022/08/22 09:52:04;;;;;;;2.97;1.05;;;25.10;50.20;;;;;;6096688;23;20093;-68
2022/08/22 09:55:04;;;;;;;3.80;1.92;;;25.20;50.80;;;;;;6097033;23;20018;-68
2022/08/22 09:57:46;;;;;;;1.35;1.02;;;25.40;50.20;;;;;;6096979;23;20101;-68
2022/08/22 10:00:46;;;;;;;2.10;1.38;;;25.40;48.60;;;;;;6096172;23;20019;-68
2022/08/22 10:03:45;;;;;;;1.67;1.20;;;25.50;47.90;;;;;;6077367;23;20007;-68
2022/08/22 10:06:55;;;;;;;2.00;1.20;;;25.60;48.10;;;;;;6096693;23;20430;-69
2022/08/22 10:09:26;;;;;;;2.08;1.42;;;25.70;47.10;;;;;;6096336;23;20097;-68
2022/08/22 10:12:18;;;;;;;2.25;1.30;;;25.70;47.10;;;;;;6096594;23;20007;-68
2022/08/22 10:15:05;;;;;;;1.77;1.17;;;25.90;47.10;;;;;;6096912;23;19999;-68
2022/08/22 10:17:37;;;;;;;2.53;1.27;;;25.90;47.00;;;;;;6096706;23;20014;-68
2022/08/22 10:20:21;;;;;;;2.55;1.17;;;26.00;46.50;;;;;;6096942;23;20154;-68
2022/08/22 10:23:12;;;;;;;3.38;1.10;;;26.10;46.90;;;;;;6097118;23;20013;-68
2022/08/22 10:25:52;;;;;;;1.85;1.13;;;26.20;46.60;;;;;;6096590;23;20461;-67
2022/08/22 10:28:38;;;;;;;2.80;1.20;;;26.30;46.70;;;;;;6096890;23;20003;-68
2022/08/22 10:31:34;;;;;;;2.80;1.20;;;26.40;47.00;;;;;;6096662;23;20006;-68
2022/08/22 10:34:23;;;;;;;1.13;1.00;;;26.40;46.70;;;;;;6096842;23;20002;-68
2022/08/22 10:37:09;;;;;;;5.28;1.27;;;26.50;47.60;;;;;;6096372;23;20015;-68
2022/08/22 10:39:56;;;;;;;3.17;1.30;;;26.60;49.10;;;;;;6096388;23;20482;-68
2022/08/22 10:42:46;;;;;;;3.10;1.10;;;26.70;48.00;;;;;;6096776;23;20496;-68
2022/08/22 10:45:18;;;;;;;2.65;1.30;;;26.80;46.10;;;;;;6098534;23;20333;-67
2022/08/22 10:47:49;;;;;;;2.03;1.10;;;26.90;45.60;;;;;;6098505;23;20022;-68
2022/08/22 10:50:23;;;;;;;1.52;1.10;;;26.90;45.90;;;;;;6098531;23;20006;-68
2022/08/22 10:53:28;;;;;;;3.65;1.55;;;27.00;46.70;;;;;;6098651;23;20144;-68
2022/08/22 10:55:41;;;;;;;1.73;0.90;;;27.00;48.00;;;;;;6097992;23;20010;-68
2022/08/22 10:58:13;;;;;;;5.85;1.13;;;27.00;47.70;;;;;;6098336;23;20036;-68
2022/08/22 11:00:49;;;;;;;3.25;1.48;;;27.00;47.20;;;;;;6098625;23;20005;-68
2022/08/22 11:03:44;;;;;;;1.67;1.10;;;27.00;47.60;;;;;;6098213;23;20453;-68
2022/08/22 11:06:19;;;;;;;3.83;1.10;;;27.00;47.10;;;;;;6098563;23;20085;-68
2022/08/22 11:09:14;;;;;;;4.30;1.42;;;27.00;47.00;;;;;;6098417;23;20006;-68
2022/08/22 11:12:02;;;;;;;1.50;1.13;;;27.00;47.40;;;;;;6098593;23;20034;-68
2022/08/22 11:14:46;;;;;;;2.92;1.30;;;27.10;48.20;;;;;;6098234;23;20077;-69
2022/08/22 11:17:26;;;;;;;4.95;1.23;;;27.20;46.60;;;;;;6097943;23;20081;-68
2022/08/22 11:20:07;;;;;;;3.80;0.90;;;27.20;46.20;;;;;;6098256;23;20002;-69
2022/08/22 11:23:09;;;;;;;2.10;1.30;;;27.30;47.10;;;;;;6095856;23;20010;-67
2022/08/22 11:26:01;;;;;;;3.70;1.10;;;27.40;47.90;;;;;;6097553;23;20449;-68
2022/08/22 11:28:39;;;;;;;3.17;0.95;;;27.50;47.20;;;;;;6097316;23;19999;-68
2022/08/22 11:31:16;;;;;;;1.95;1.15;;;27.60;45.00;;;;;;6097507;23;20337;-67
2022/08/22 11:33:57;;;;;;;3.85;1.00;;;27.70;44.70;;;;;;6097693;23;20026;-68
2022/08/22 11:36:35;;;;;;;1.83;1.30;;;27.80;44.50;;;;;;6097691;23;20012;-68
2022/08/22 11:39:38;;;;;;;1.45;1.25;;;27.90;43.60;;;;;;6097262;23;20434;-68
2022/08/22 11:42:43;;;;;;;3.53;1.45;;;27.90;42.70;;;;;;6097742;23;20302;-68
2022/08/22 11:45:17;;;;;;;5.35;1.50;;;27.90;43.00;;;;;;6096362;23;20085;-68
2022/08/22 11:48:07;;;;;;;3.38;1.25;;;28.00;44.60;;;;;;6071830;23;20399;-68
2022/08/22 11:50:44;;;;;;;2.17;1.30;;;28.00;44.50;;;;;;6097638;23;20002;-68
2022/08/22 11:53:30;;;;;;;3.63;1.35;;;28.10;44.50;;;;;;6097480;23;20057;-68
2022/08/22 11:56:02;;;;;;;2.97;1.25;;;28.20;43.90;;;;;;6093679;23;20473;-68
2022/08/22 11:58:39;;;;;;;2.65;1.27;;;28.10;44.40;;;;;;6093746;23;20030;-68
2022/08/22 12:01:34;;;;;;;3.05;1.20;;;28.10;43.40;;;;;;6094664;23;20457;-68
2022/08/22 12:04:02;;;;;;;3.22;1.20;;;28.00;42.70;;;;;;6097671;23;20002;-68
2022/08/22 12:06:40;;;;;;;2.25;1.10;;;28.00;43.40;;;;;;6097714;23;20014;-68
2022/08/22 12:09:36;;;;;;;3.10;1.13;;;28.00;43.60;;;;;;6097651;23;20070;-67
2022/08/22 12:12:20;;;;;;;2.70;1.10;;;27.90;42.90;;;;;;6097880;23;20077;-68
2022/08/22 12:15:09;;;;;;;1.23;1.02;;;27.90;43.40;;;;;;6097628;23;20006;-68
2022/08/22 12:17:53;;;;;;;1.13;0.93;;;27.80;42.20;;;;;;6096346;23;20014;-68
2022/08/22 12:20:33;;;;;;;1.15;1.05;;;27.80;41.30;;;;;;6097239;23;20422;-68
2022/08/22 12:23:05;;;;;;;1.27;1.10;;;27.80;41.90;;;;;;6097737;23;20013;-68
2022/08/22 12:26:04;;;;;;;1.77;1.13;;;27.70;42.40;;;;;;6097388;23;20077;-68
2022/08/22 12:29:12;;;;;;;1.80;1.17;;;27.70;41.80;;;;;;6097328;23;20069;-68
2022/08/22 12:32:01;;;;;;;3.42;1.05;;;27.70;42.20;;;;;;6097288;23;20002;-68
2022/08/22 12:34:51;;;;;;;2.15;1.15;;;27.70;41.80;;;;;;6094287;23;19998;-68
2022/08/22 12:37:19;;;;;;;2.78;1.00;;;27.60;41.00;;;;;;6096067;23;20022;-68
2022/08/22 12:39:54;;;;;;;2.90;1.00;;;27.60;41.60;;;;;;6097349;23;20009;-68
2022/08/22 12:42:42;;;;;;;1.23;1.13;;;27.60;41.30;;;;;;6097452;23;20326;-68
2022/08/22 12:45:38;;;;;;;1.45;1.08;;;27.60;41.60;;;;;;6097199;23;20002;-68
2022/08/22 12:48:09;;;;;;;2.00;1.10;;;27.60;42.40;;;;;;6097671;23;20488;-68
2022/08/22 12:50:35;;;;;;;1.98;1.30;;;27.60;42.20;;;;;;6097162;23;20311;-68
2022/08/22 12:53:25;;;;;;;1.30;1.20;;;27.60;42.00;;;;;;6097429;23;20006;-69
2022/08/22 12:56:22;;;;;;;1.23;0.90;;;27.60;41.30;;;;;;6097502;23;20054;-68
2022/08/22 12:59:00;;;;;;;2.78;1.10;;;27.60;41.30;;;;;;6085097;23;20018;-68
2022/08/22 13:01:32;;;;;;;1.88;1.00;;;27.60;43.20;;;;;;6097447;23;20010;-68
2022/08/22 13:04:04;;;;;;;3.53;1.20;;;27.60;42.10;;;;;;6097181;23;20082;-68
2022/08/22 13:06:35;;;;;;;2.13;1.30;;;27.60;41.10;;;;;;6096953;23;20036;-68
2022/08/22 13:09:09;;;;;;;4.82;1.23;;;27.60;41.30;;;;;;6097068;23;20449;-68
2022/08/22 13:11:40;;;;;;;4.57;1.10;;;27.70;45.90;;;;;;6097312;23;20081;-67
2022/08/22 13:14:08;;;;;;;3.95;1.15;;;27.60;48.20;;;;;;6097219;23;20018;-67
2022/08/22 13:16:42;;;;;;;3.58;1.17;;;27.60;49.50;;;;;;6096901;23;20029;-68
2022/08/22 13:19:17;;;;;;;1.63;1.30;;;27.60;49.20;;;;;;6096840;23;20016;-68
2022/08/22 13:21:49;;;;;;;1.95;1.30;;;27.60;49.20;;;;;;6097415;23;20008;-68
2022/08/22 13:24:25;;;;;;;1.65;1.23;;;27.60;49.50;;;;;;6096790;23;20370;-68
2022/08/22 13:26:58;;;;;;;2.08;1.20;;;27.60;48.80;;;;;;6097127;23;20337;-68
2022/08/22 13:29:39;;;;;;;4.13;1.38;;;27.60;49.10;;;;;;6096993;23;20006;-68
2022/08/22 13:32:06;;;;;;;5.03;1.20;;;27.70;48.90;;;;;;6096752;23;20002;-69
2022/08/22 13:34:42;;;;;;;3.05;1.00;;;27.70;48.70;;;;;;6096661;23;20231;-70
2022/08/22 13:37:20;;;;;;;4.28;1.52;;;27.70;48.90;;;;;;6096586;23;20014;-68
2022/08/22 13:39:49;;;;;;;4.03;1.30;;;27.70;47.80;;;;;;6096852;23;20030;-69
2022/08/22 13:42:21;;;;;;;5.53;1.50;;;27.70;48.40;;;;;;6096614;23;20006;-69
2022/08/22 13:44:53;;;;;;;3.80;1.20;;;27.70;48.70;;;;;;6095969;23;20003;-68
2022/08/22 13:47:22;;;;;;;3.28;1.27;;;27.70;49.00;;;;;;6095712;23;20006;-69
2022/08/22 13:49:51;;;;;;;10.75;1.40;;;27.70;48.90;;;;;;6096836;23;20053;-69
2022/08/22 13:52:30;;;;;;;2.15;1.20;;;27.70;49.00;;;;;;6096931;23;20436;-69
2022/08/22 13:55:23;;;;;;;4.80;1.27;;;27.80;49.20;;;;;;6097223;23;20006;-69
2022/08/22 13:57:57;;;;;;;7.03;1.33;;;27.80;48.30;;;;;;6088125;23;20451;-69
2022/08/22 14:00:44;;;;;;;3.55;1.50;;;27.80;48.20;;;;;;6067846;23;20018;-69
2022/08/22 14:03:18;;;;;;;1.92;1.10;;;27.90;47.60;;;;;;6067388;23;20382;-70